createdAt,value
2022-10-18T06:40:38.081Z,73.61
2022-10-18T06:43:20.197Z,73.65
2022-10-18T06:45:48.363Z,73.75
2022-10-18T06:48:15.262Z,73.75
2022-10-18T06:50:41.817Z,73.65
2022-10-18T06:53:09.027Z,73.48
2022-10-18T06:55:36.169Z,73.58
2022-10-18T06:58:02.702Z,73.74
2022-10-18T07:00:29.241Z,73.95
2022-10-18T07:02:57.152Z,73.89
2022-10-18T07:05:23.905Z,73.69
2022-10-18T07:07:54.215Z,73.75
2022-10-18T07:10:25.182Z,73.78
2022-10-18T07:12:56.018Z,73.87
2022-10-18T07:15:29.971Z,73.96
2022-10-18T07:17:57.137Z,73.67
2022-10-18T07:20:23.640Z,73.90
2022-10-18T07:22:50.234Z,73.79
2022-10-18T07:25:16.763Z,73.89
2022-10-18T07:27:43.532Z,73.85
2022-10-18T07:30:11.207Z,73.89
2022-10-18T07:32:37.638Z,74.07
2022-10-18T07:35:04.592Z,73.91
2022-10-18T07:37:31.445Z,74.15
2022-10-18T07:39:58.090Z,74.13
2022-10-18T07:42:24.984Z,74.12
2022-10-18T07:44:51.465Z,73.95
2022-10-18T07:47:18.146Z,73.91
2022-10-18T07:49:44.670Z,74.00
2022-10-18T07:52:11.676Z,74.05
2022-10-18T07:54:38.184Z,74.04
2022-10-18T07:57:05.057Z,74.11
2022-10-18T07:59:31.462Z,73.98
2022-10-18T08:01:57.921Z,74.07
2022-10-18T08:04:24.478Z,73.88
2022-10-18T08:06:50.876Z,74.12
2022-10-18T08:09:17.492Z,73.97
2022-10-18T08:11:44.045Z,74.00
2022-10-18T08:14:10.554Z,74.01
2022-10-18T08:16:37.049Z,74.06
2022-10-18T08:19:04.412Z,74.40
2022-10-18T08:21:31.006Z,74.22
2022-10-18T08:23:57.517Z,74.21
2022-10-18T08:26:24.196Z,74.22
2022-10-18T08:28:58.171Z,74.22
2022-10-18T08:31:36.235Z,74.32
2022-10-18T08:34:02.702Z,74.16
2022-10-18T08:36:29.272Z,74.16
2022-10-18T08:38:55.681Z,74.13
2022-10-18T08:41:36.994Z,73.96
2022-10-18T08:44:25.325Z,74.10
2022-10-18T08:47:00.959Z,74.04
2022-10-18T08:49:47.259Z,74.20
2022-10-18T08:52:28.304Z,73.82
2022-10-18T08:55:05.184Z,73.92
2022-10-18T08:57:32.957Z,74.33
2022-10-18T08:59:59.753Z,73.87
2022-10-18T09:02:55.992Z,73.83
2022-10-18T09:05:51.287Z,74.24
2022-10-18T09:08:32.833Z,73.86
2022-10-18T09:11:38.278Z,73.94
2022-10-18T09:14:28.802Z,73.92
2022-10-18T09:17:17.783Z,73.97
2022-10-18T09:19:57.590Z,73.79
2022-10-18T09:22:38.829Z,73.70
2022-10-18T09:25:14.415Z,73.84
2022-10-18T09:27:52.549Z,73.77
2022-10-18T09:30:43.697Z,73.92
2022-10-18T09:33:29.282Z,73.71
2022-10-18T09:36:01.744Z,73.74
2022-10-18T09:38:33.064Z,73.71
2022-10-18T09:41:07.452Z,73.74
2022-10-18T09:43:52.758Z,73.61
2022-10-18T09:46:21.340Z,73.73
2022-10-18T09:49:03.413Z,73.84
2022-10-18T09:51:35.403Z,73.59
2022-10-18T09:54:27.691Z,73.40
2022-10-18T09:57:06.597Z,73.43
2022-10-18T09:59:40.450Z,73.41
2022-10-18T10:02:09.536Z,73.41
2022-10-18T10:04:35.964Z,73.28
2022-10-18T10:07:02.677Z,73.43
2022-10-18T10:09:36.476Z,73.22
2022-10-18T10:12:03.143Z,73.29
2022-10-18T10:14:30.675Z,73.31
2022-10-18T10:17:03.562Z,73.11
2022-10-18T10:19:34.925Z,73.31
2022-10-18T10:22:09.872Z,73.27
2022-10-18T10:24:39.288Z,73.28
2022-10-18T10:27:14.115Z,73.26
2022-10-18T10:29:48.519Z,73.41
2022-10-18T10:32:17.703Z,73.38
2022-10-18T10:34:45.153Z,73.40
2022-10-18T10:37:31.633Z,73.40
2022-10-18T10:40:23.064Z,73.29
2022-10-18T10:43:19.600Z,73.35
2022-10-18T10:46:15.192Z,73.22
2022-10-18T10:49:04.455Z,73.34
2022-10-18T10:51:41.055Z,73.34
2022-10-18T10:54:15.652Z,73.23
2022-10-18T10:57:02.184Z,73.37
2022-10-18T11:02:20.544Z,72.92
2022-10-18T11:04:55.355Z,72.74
2022-10-18T11:07:30.064Z,72.62
2022-10-18T11:10:05.657Z,72.68
2022-10-18T11:12:45.271Z,72.62
2022-10-18T11:15:12.033Z,72.64
2022-10-18T11:18:17.334Z,72.44
2022-10-18T11:21:25.779Z,72.29
2022-10-18T11:23:52.289Z,72.41
2022-10-18T11:26:30.811Z,72.15
2022-10-18T11:29:15.440Z,72.18
2022-10-18T11:31:59.905Z,72.11
2022-10-18T11:34:46.558Z,71.93
2022-10-18T11:37:34.729Z,71.13
2022-10-18T11:40:41.742Z,71.08
2022-10-18T11:43:30.300Z,70.80
2022-10-18T11:46:21.620Z,69.85
2022-10-18T11:48:55.728Z,69.81
2022-10-18T11:51:34.339Z,69.29
2022-10-18T11:54:29.817Z,69.30
2022-10-18T11:57:17.595Z,68.95
2022-10-18T12:00:16.477Z,68.78
2022-10-18T12:03:15.291Z,68.61
2022-10-18T12:05:44.386Z,68.77
2022-10-18T12:08:42.724Z,67.31
2022-10-18T12:11:14.632Z,67.58
2022-10-18T12:13:52.427Z,67.45
2022-10-18T12:16:38.887Z,67.59
2022-10-18T12:19:23.495Z,67.31
2022-10-18T12:21:54.954Z,67.32
2022-10-18T12:24:25.983Z,67.20
2022-10-18T12:26:57.740Z,67.28
2022-10-18T15:14:16.267Z,62.63
2022-10-18T15:16:42.817Z,62.59
2022-10-18T15:19:15.037Z,62.67
2022-10-18T15:22:30.243Z,62.60
2022-10-18T15:25:05.311Z,62.83
2022-10-18T15:27:35.978Z,63.10
2022-10-18T15:30:21.731Z,63.39
2022-10-18T15:32:57.969Z,63.19
2022-10-18T15:35:33.136Z,63.51
2022-10-18T15:38:04.580Z,63.60
2022-10-18T15:40:36.042Z,63.53
2022-10-18T15:43:25.428Z,63.74
2022-10-18T15:46:00.260Z,63.22
2022-10-18T15:48:40.913Z,63.57
2022-10-18T15:51:48.574Z,63.51
2022-10-18T15:54:19.063Z,63.17
2022-10-18T15:56:45.798Z,63.28
2022-10-18T15:59:28.034Z,63.83
2022-10-18T16:01:54.911Z,63.76
2022-10-18T16:04:30.015Z,63.82
2022-10-18T16:06:57.886Z,63.47
2022-10-18T16:09:26.576Z,63.28
2022-10-18T16:11:56.945Z,63.33
2022-10-18T16:14:25.011Z,63.05
2022-10-18T16:16:54.883Z,63.29
2022-10-18T16:19:22.696Z,63.21
2022-10-18T16:21:49.912Z,63.37
2022-10-18T16:24:16.830Z,63.34
2022-10-18T16:26:43.296Z,63.56
2022-10-18T16:29:24.232Z,63.60
2022-10-18T16:31:53.366Z,63.69
2022-10-18T16:34:19.822Z,63.74
2022-10-18T16:36:46.202Z,63.77
2022-10-18T16:39:16.405Z,63.93
2022-10-18T16:41:43.199Z,63.98
2022-10-18T16:44:10.092Z,63.93
2022-10-18T16:46:37.007Z,64.12
2022-10-18T16:49:04.177Z,64.17
2022-10-18T16:51:30.642Z,64.10
2022-10-18T16:53:57.500Z,64.14
2022-10-18T16:56:30.581Z,64.27
2022-10-18T16:58:58.177Z,64.19
2022-10-18T17:01:25.898Z,64.09
2022-10-18T17:03:53.384Z,64.09
2022-10-18T17:06:29.442Z,64.25
2022-10-18T17:08:57.151Z,64.20
2022-10-18T17:11:26.724Z,64.18
2022-10-18T17:13:53.631Z,64.26
2022-10-18T17:16:30.838Z,64.28
2022-10-18T17:18:59.835Z,64.26
2022-10-18T17:21:28.177Z,64.24
2022-10-18T17:23:55.183Z,64.33
2022-10-18T17:26:29.066Z,64.39
2022-10-18T17:28:59.753Z,64.50
2022-10-18T17:31:26.645Z,64.71
2022-10-18T17:33:56.142Z,64.78
2022-10-18T17:36:22.638Z,64.61
2022-10-18T17:38:55.984Z,64.85
2022-10-18T17:41:22.879Z,64.88
2022-10-18T17:43:49.400Z,64.88
2022-10-18T17:46:17.644Z,65.06
2022-10-18T17:48:44.136Z,65.03
2022-10-18T17:51:12.447Z,65.04
2022-10-18T17:53:39.558Z,65.08
2022-10-18T17:56:07.595Z,65.20
2022-10-18T17:58:34.472Z,65.20
2022-10-18T18:01:12.668Z,64.93
2022-10-18T18:03:39.841Z,65.32
2022-10-18T18:06:23.983Z,65.10
2022-10-18T18:08:50.783Z,65.12
2022-10-18T18:11:17.810Z,65.17
2022-10-18T18:13:44.282Z,65.30
2022-10-18T18:16:11.965Z,65.29
2022-10-18T18:18:38.419Z,65.22
2022-10-18T18:21:04.944Z,65.41
2022-10-18T18:23:31.486Z,65.47
2022-10-18T18:25:58.286Z,65.55
2022-10-18T18:28:24.769Z,65.61
2022-10-18T18:30:51.338Z,65.57
2022-10-18T18:33:17.882Z,65.72
2022-10-18T18:35:44.386Z,65.67
2022-10-18T18:38:10.919Z,65.71
2022-10-18T18:40:37.390Z,65.66
2022-10-18T18:43:12.530Z,65.69
2022-10-18T18:45:52.123Z,65.71
2022-10-18T18:48:19.919Z,65.78
2022-10-18T18:50:50.504Z,65.90
2022-10-18T18:53:17.429Z,65.91
2022-10-18T18:55:43.999Z,65.83
2022-10-18T18:58:11.998Z,65.95
2022-10-18T19:00:43.423Z,65.85
2022-10-18T19:03:11.397Z,65.87
2022-10-18T19:05:37.968Z,65.82
2022-10-18T19:08:06.066Z,65.98
2022-10-18T19:10:32.821Z,65.56
2022-10-18T19:13:02.037Z,65.72
2022-10-18T19:15:28.463Z,65.84
2022-10-18T19:17:55.934Z,65.79
2022-10-18T19:20:22.438Z,65.89
2022-10-18T19:22:49.037Z,66.05
2022-10-18T19:25:15.499Z,65.89
2022-10-18T19:27:41.961Z,65.98
2022-10-18T19:30:09.711Z,65.94
2022-10-18T19:32:36.448Z,66.01
2022-10-18T19:35:03.586Z,65.95
2022-10-18T19:37:30.053Z,66.04
2022-10-18T19:39:56.505Z,66.11
2022-10-18T19:42:27.488Z,66.08
2022-10-18T19:44:56.938Z,66.01
2022-10-18T19:47:23.512Z,65.90
2022-10-18T19:49:50.248Z,66.02
2022-10-18T19:52:16.674Z,65.91
2022-10-18T19:54:44.871Z,65.86
2022-10-18T19:57:11.488Z,65.87
2022-10-18T19:59:38.451Z,65.89
2022-10-18T20:02:04.947Z,65.93
2022-10-18T20:04:34.509Z,65.95
2022-10-18T20:07:02.619Z,65.83
2022-10-18T20:09:29.223Z,65.75
2022-10-18T20:11:55.660Z,65.78
2022-10-18T20:14:22.210Z,65.78
2022-10-18T20:16:48.640Z,65.84
2022-10-18T20:19:15.085Z,65.78
2022-10-18T20:21:41.482Z,65.84
2022-10-18T20:24:09.362Z,65.64
2022-10-18T20:26:36.114Z,65.70
2022-10-18T20:29:03.786Z,65.79
2022-10-18T20:31:32.971Z,65.74
2022-10-18T20:34:02.154Z,65.80
2022-10-18T20:36:30.553Z,65.85
2022-10-18T20:38:57.439Z,65.78
2022-10-18T20:41:29.807Z,65.88
2022-10-18T20:43:59.074Z,65.97
2022-10-18T20:46:27.306Z,65.76
2022-10-18T20:54:57.410Z,65.79
2022-10-18T20:57:23.856Z,65.90
2022-10-18T20:59:50.298Z,65.88
2022-10-18T21:02:16.657Z,65.72
2022-10-18T21:04:43.037Z,65.74
2022-10-18T21:07:09.450Z,65.76
2022-10-18T21:09:35.883Z,65.72
2022-10-18T21:12:02.445Z,65.76
2022-10-18T21:14:29.087Z,65.77
2022-10-18T21:16:55.499Z,65.84
2022-10-18T21:19:24.617Z,65.83
2022-10-18T21:21:54.276Z,65.85
2022-10-18T21:24:23.221Z,65.63
2022-10-18T21:26:49.785Z,65.74
2022-10-18T21:29:21.545Z,65.69
2022-10-18T21:31:48.825Z,65.75
2022-10-18T21:34:17.299Z,65.71
2022-10-18T21:36:45.232Z,65.56
2022-10-18T21:39:15.032Z,65.63
2022-10-18T21:41:42.854Z,65.42
2022-10-18T21:44:11.163Z,65.51
2022-10-18T21:46:39.357Z,65.42
2022-10-18T21:49:06.944Z,65.47
2022-10-18T21:51:33.457Z,65.33
2022-10-18T21:53:59.839Z,65.33
2022-10-18T21:56:31.669Z,65.25
2022-10-18T21:58:58.305Z,65.29
2022-10-18T22:01:28.126Z,65.46
2022-10-18T22:03:56.489Z,65.51
2022-10-18T22:06:23.767Z,65.42
2022-10-18T22:08:52.454Z,65.40
2022-10-18T22:11:22.857Z,65.42
2022-10-18T22:13:49.517Z,65.46
2022-10-18T22:16:16.949Z,65.42
2022-10-18T22:18:44.777Z,65.43
2022-10-18T22:21:14.536Z,65.42
2022-10-18T22:23:46.918Z,65.44
2022-10-18T22:26:38.407Z,65.33
2022-10-18T22:29:11.426Z,65.43
2022-10-18T22:31:40.603Z,65.87
2022-10-18T22:34:11.458Z,65.64
2022-10-18T22:36:38.101Z,65.64
2022-10-18T22:39:08.485Z,65.72
2022-10-18T22:41:35.469Z,65.84
2022-10-18T22:44:03.992Z,65.87
2022-10-18T22:46:31.439Z,65.91
2022-10-18T22:48:57.856Z,65.90
2022-10-18T22:51:24.395Z,65.93
2022-10-18T22:53:50.912Z,65.96
2022-10-18T22:56:20.253Z,66.03
2022-10-18T22:58:48.055Z,66.14
2022-10-18T23:01:17.697Z,66.05
2022-10-18T23:03:44.458Z,65.90
2022-10-18T23:06:30.313Z,65.89
2022-10-18T23:08:58.417Z,66.08
2022-10-18T23:11:26.441Z,66.14
2022-10-18T23:13:53.119Z,66.12
2022-10-18T23:16:19.966Z,66.29
2022-10-18T23:18:54.927Z,66.11
2022-10-18T23:21:24.080Z,66.23
2022-10-18T23:23:51.385Z,66.10
2022-10-18T23:26:21.435Z,66.08
2022-10-18T23:28:49.608Z,66.38
2022-10-18T23:31:19.915Z,66.15
2022-10-18T23:33:48.413Z,66.24
2022-10-18T23:36:15.665Z,66.19
2022-10-18T23:38:42.574Z,66.39
2022-10-18T23:41:11.627Z,66.21
2022-10-18T23:43:38.470Z,66.28
2022-10-18T23:46:05.461Z,66.31
2022-10-18T23:48:32.165Z,66.31
2022-10-18T23:50:58.628Z,66.28
2022-10-18T23:53:26.547Z,66.38
2022-10-18T23:55:58.341Z,66.19
2022-10-18T23:58:26.089Z,66.34
